Augusta, KS

3:19 PM CDT on October 01, 2014 (GMT -0500)
The Highlands | Change Station
CLOSE
Current Station
Personal Weather Station
Location: Andover, KS
Elevation: 1326 ft
Nearby Weather Stations

Elev 1326 ft 37.68 °N, 97.12 °W | Updated 11 seconds ago

Partly Cloudy
Partly Cloudy
86.7 °F
Feels Like 89 °F
N
9.5
Wind Variable Wind from South
Gusts 12.7 mph

Today
High -- | Low -- °F
--% Chance of Precip.
Yesterday
High -- | Low -- °F
Precip. -- in
7:23 AM 7:10 PM
Waxing Crescent, 50% visible
Pressure 29.73 in
Visibility 10.0 miles
Clouds Few 6000 ft
Mostly Cloudy 8000 ft
Heat Index 89 °F
Dew Point 66 °F
Humidity 50%
Rainfall 0.00 in
Snow Depth Not available.
UV 3 out of 12
Pollen 1.80 out of 12
Air Quality Not available.
Flu Activity Not available.
METAR KAAO 301954Z AUTO 17016G24KT 10SM FEW060 BKN080 29/14 A2977 RMK AO2 SLP067 T02890144

More Conditions Fewer Conditions

Pressure 29.73 in
Visibility 10.0 miles
Clouds Few 6000 ft
Mostly Cloudy 8000 ft
Heat Index 89 °F
Dew Point 66 °F
Humidity 50%
Rainfall 0.00 in
Snow Depth Not available.
UV 3 out of 12
Pollen 1.80 out of 12
Air Quality Not available.
Flu Activity Not available.
METAR KAAO 301954Z AUTO 17016G24KT 10SM FEW060 BKN080 29/14 A2977 RMK AO2 SLP067 T02890144

More Conditions Fewer Conditions

10-Day Weather Forecast

Almanac

Astronomy

Oct. 01, 2014 Rise Set
Actual Time 7:23 AM CDT 7:10 PM CDT
Civil Twilight 6:57 AM CDT 7:37 PM CDT
Nautical Twilight 6:26 AM CDT 8:07 PM CDT
Astronomical Twilight 5:56 AM CDT 8:37 PM CDT
Moon 2:20 PM CDT No Moon Set
Length of Visible Light 12h 39m
Length of Day
11h 47m
Tomorrow will be 2m 24s shorter.
Waxing Crescent, 50% of the Moon is Illuminated
Today
Waxing Crescent
Oct 8
Full
Oct 15
Last Quarter
Oct 23
New
Oct 30
First Quarter

Today's Extremes

State Highs State Lows

Community

WunderPhotos

Upload Photos

1,758,022 photos uploaded!

WunderBlogs® & News

By Dr. Jeff Masters
Director of Meteorology, Weather Underground
By Kari Strenfel
Meteorologist, Weather Underground
By Christopher C. Burt
Weather Historian, Weather Underground
October 1, 2014
October 1, 2014
October 1, 2014

Nearby

Snow Depth

Station Depth Elevation
No new snow has been reported.

Earthquake Activity

City Distance Mag. Time & Date
Harper, Kansas 59 miles 3.3 1:11 AM CDT
2014-10-01
Medford, Oklahoma 75 miles 2.5 10:49 PM CDT
2014-09-30
Medford, Oklahoma 77 miles 2.8 8:30 PM CDT
2014-09-30
Parsons, Kansas 89 miles 3.0 7:33 PM CDT
2014-09-30
Minimum magnitude displayed is 2.5.

Coastal Water Temperatures

Place Temperature
No Stations Reporting

Nearby Weather Stations